createdAt,value
2019-04-26T00:01:45.335Z,100429.94
2019-04-26T00:04:14.773Z,100429.55
2019-04-26T00:06:45.969Z,100425.29
2019-04-26T00:09:23.613Z,100424.41
2019-04-26T00:12:12.172Z,100431.72
2019-04-26T00:14:45.988Z,100426.77
2019-04-26T00:17:23.045Z,100428.38
2019-04-26T00:19:54.398Z,100425.44
2019-04-26T00:22:24.301Z,100444.20
2019-04-26T00:24:53.924Z,100450.11
2019-04-26T00:27:23.688Z,100448.38
2019-04-26T00:29:53.357Z,100439.18
2019-04-26T00:32:25.550Z,100437.34
2019-04-26T00:34:55.921Z,100431.55
2019-04-26T00:37:25.322Z,100409.13
2019-04-26T00:39:56.057Z,100423.83
2019-04-26T00:42:25.474Z,100428.59
2019-04-26T00:44:56.533Z,100427.72
2019-04-26T00:47:26.710Z,100429.24
2019-04-26T00:49:58.350Z,100430.41
2019-04-26T00:52:29.892Z,100431.72
2019-04-26T00:55:00.583Z,100428.62
2019-04-26T00:57:32.720Z,100425.38
2019-04-26T01:00:03.376Z,100420.95
2019-04-26T01:02:38.224Z,100411.75
2019-04-26T01:05:09.221Z,100422.47
2019-04-26T01:07:40.525Z,100433.16
2019-04-26T01:10:11.146Z,100421.25
2019-04-26T01:12:40.524Z,100404.62
2019-04-26T01:15:10.607Z,100410.58
2019-04-26T01:17:39.985Z,100410.13
2019-04-26T01:20:10.629Z,100400.49
2019-04-26T01:22:43.208Z,100404.39
2019-04-26T01:25:25.312Z,100401.03
2019-04-26T01:27:54.624Z,100412.02
2019-04-26T01:30:25.858Z,100401.80
2019-04-26T01:32:55.954Z,100396.16
2019-04-26T01:35:26.937Z,100408.48
2019-04-26T01:37:56.479Z,100406.17
2019-04-26T01:40:28.196Z,100410.67
2019-04-26T01:43:11.382Z,100404.28
2019-04-26T01:45:45.810Z,100404.28
2019-04-26T01:48:42.960Z,100410.67
2019-04-26T01:51:16.149Z,100405.00
2019-04-26T01:53:45.991Z,100411.19
2019-04-26T01:56:16.716Z,100412.28
2019-04-26T01:58:47.651Z,100424.45
2019-04-26T02:01:25.365Z,100421.63
2019-04-26T02:03:55.808Z,100421.09
2019-04-26T02:06:32.023Z,100422.66
2019-04-26T02:08:58.888Z,100423.23
2019-04-26T02:11:28.793Z,100432.51
2019-04-26T02:13:59.335Z,100432.30
2019-04-26T02:16:29.174Z,100439.59
2019-04-26T02:19:00.234Z,100440.11
2019-04-26T02:21:31.961Z,100436.16
2019-04-26T02:24:07.187Z,100443.69
2019-04-26T02:26:38.417Z,100439.50
2019-04-26T02:29:16.409Z,100434.30
2019-04-26T02:31:48.936Z,100435.49
2019-04-26T02:34:18.563Z,100432.30
2019-04-26T02:36:57.848Z,100423.47
2019-04-26T02:39:21.435Z,100429.83
2019-04-26T02:41:53.390Z,100432.09
2019-04-26T02:44:28.975Z,100436.87
2019-04-26T02:47:34.567Z,100444.35
2019-04-26T02:50:08.102Z,100444.35
2019-04-26T02:52:43.546Z,100438.86
2019-04-26T02:55:51.478Z,100436.09
2019-04-26T02:58:22.499Z,100436.58
2019-04-26T03:00:52.539Z,100432.59
2019-04-26T03:03:24.344Z,100427.84
2019-04-26T03:05:55.065Z,100451.34
2019-04-26T03:08:25.638Z,100451.34
2019-04-26T03:10:59.217Z,100465.48
2019-04-26T03:13:47.417Z,100474.03
2019-04-26T03:16:20.782Z,100471.35
2019-04-26T03:19:01.812Z,100474.67
2019-04-26T03:21:51.057Z,100474.16
2019-04-26T03:24:34.559Z,100479.28
2019-04-26T03:27:25.576Z,100484.73
2019-04-26T03:30:19.433Z,100479.43
2019-04-26T03:32:58.495Z,100489.34
2019-04-26T03:35:58.507Z,100496.02
2019-04-26T03:38:43.602Z,100495.81
2019-04-26T03:41:23.542Z,100501.47
2019-04-26T03:44:15.459Z,100502.45
2019-04-26T03:46:48.158Z,100504.06
2019-04-26T03:49:23.923Z,100488.33
2019-04-26T03:52:19.125Z,100484.80
2019-04-26T03:54:53.302Z,100466.11
2019-04-26T03:57:44.887Z,100471.00
2019-04-26T04:00:33.294Z,100477.72
2019-04-26T04:03:27.007Z,100501.25
2019-04-26T04:06:00.924Z,100517.99
2019-04-26T04:08:40.594Z,100526.73
2019-04-26T04:11:22.385Z,100519.91
2019-04-26T04:13:55.054Z,100504.70
2019-04-26T04:16:38.687Z,100490.22
2019-04-26T04:19:14.951Z,100485.27
2019-04-26T04:22:11.285Z,100482.72
2019-04-26T04:24:53.573Z,100486.40
2019-04-26T04:27:44.086Z,100486.47
2019-04-26T04:30:40.012Z,100493.11
2019-04-26T04:33:14.296Z,100485.59
2019-04-26T04:35:49.354Z,100485.02
2019-04-26T04:38:40.858Z,100489.57
2019-04-26T04:41:21.424Z,100503.03
2019-04-26T04:44:12.101Z,100524.59
2019-04-26T04:46:55.676Z,100524.81
2019-04-26T04:49:59.258Z,100527.66
2019-04-26T04:52:50.218Z,100540.08
2019-04-26T04:55:29.192Z,100569.56
2019-04-26T04:58:05.065Z,100567.84
2019-04-26T05:01:00.877Z,100563.77
2019-04-26T05:03:45.372Z,100563.69
2019-04-26T05:06:34.375Z,100554.27
2019-04-26T05:09:09.878Z,100546.95
2019-04-26T05:12:06.742Z,100537.23
2019-04-26T05:15:14.121Z,100531.05
2019-04-26T05:18:07.896Z,100543.22
2019-04-26T05:20:53.273Z,100539.58
2019-04-26T05:23:32.094Z,100539.72
2019-04-26T05:26:28.241Z,100546.06
2019-04-26T05:29:22.705Z,100559.17
2019-04-26T05:31:56.252Z,100568.09
2019-04-26T05:34:33.384Z,100587.96
2019-04-26T05:37:12.216Z,100591.66
2019-04-26T05:39:57.433Z,100590.62
2019-04-26T05:42:53.974Z,100579.34
2019-04-26T05:45:45.928Z,100574.66
2019-04-26T05:49:05.569Z,100552.88
2019-04-26T05:52:13.389Z,100557.91
2019-04-26T05:55:06.875Z,100575.45
2019-04-26T05:58:02.801Z,100579.67
2019-04-26T06:00:53.967Z,100579.09
2019-04-26T06:03:40.368Z,100569.83
2019-04-26T06:06:29.870Z,100570.41
2019-04-26T06:09:08.049Z,100577.37
2019-04-26T06:11:52.628Z,100579.80
2019-04-26T06:14:35.861Z,100586.36
2019-04-26T06:17:12.863Z,100578.96
2019-04-26T06:19:55.784Z,100584.58
2019-04-26T06:22:39.357Z,100598.12
2019-04-26T06:25:31.564Z,100595.63
2019-04-26T06:28:07.682Z,100597.13
2019-04-26T06:30:45.525Z,100594.90
2019-04-26T06:33:20.505Z,100601.75
2019-04-26T06:35:54.101Z,100589.84
2019-04-26T06:38:44.029Z,100590.19
2019-04-26T06:41:21.258Z,100588.61
2019-04-26T06:44:04.939Z,100588.34
2019-04-26T06:47:06.608Z,100588.18
2019-04-26T06:50:15.213Z,100585.63
2019-04-26T06:52:59.039Z,100597.32
2019-04-26T06:55:37.532Z,100594.11
2019-04-26T06:58:25.153Z,100596.45
2019-04-26T07:01:14.482Z,100600.41
2019-04-26T07:04:06.909Z,100597.81
2019-04-26T07:07:03.316Z,100596.39
2019-04-26T07:10:04.051Z,100600.33
2019-04-26T07:13:20.120Z,100594.81
2019-04-26T07:16:19.673Z,100598.77
2019-04-26T07:19:03.535Z,100620.84
2019-04-26T07:21:44.829Z,100628.61
2019-04-26T07:24:43.495Z,100641.43
2019-04-26T07:27:17.382Z,100650.70
2019-04-26T07:30:09.878Z,100672.87
2019-04-26T07:33:01.451Z,100674.28
2019-04-26T07:35:50.033Z,100675.84
2019-04-26T07:38:51.476Z,100658.13
2019-04-26T07:41:51.318Z,100660.74
2019-04-26T07:44:36.244Z,100660.11
2019-04-26T07:47:20.530Z,100665.47
2019-04-26T07:50:14.148Z,100654.27
2019-04-26T07:53:13.617Z,100656.03
2019-04-26T07:55:52.203Z,100641.80
2019-04-26T07:58:55.829Z,100650.28
2019-04-26T08:01:45.843Z,100666.23
2019-04-26T08:04:21.258Z,100679.86
2019-04-26T08:07:08.985Z,100688.41
2019-04-26T08:09:41.563Z,100700.53
2019-04-26T08:12:14.148Z,100712.66
2019-04-26T08:15:09.093Z,100709.22
2019-04-26T08:17:53.768Z,100703.22
2019-04-26T08:20:38.786Z,100702.72
2019-04-26T08:23:35.079Z,100707.89
2019-04-26T08:25:44.174Z,100707.38
2019-04-26T08:28:18.237Z,100707.85
2019-04-26T08:30:50.315Z,100699.16
2019-04-26T08:33:24.469Z,100688.08
2019-04-26T08:35:55.361Z,100695.62
2019-04-26T08:38:27.855Z,100688.64
2019-04-26T08:41:00.534Z,100687.64
2019-04-26T08:43:45.216Z,100692.83
2019-04-26T08:46:26.248Z,100689.48
2019-04-26T08:49:06.369Z,100684.05
2019-04-26T08:51:36.818Z,100685.02
2019-04-26T08:54:08.729Z,100686.52
2019-04-26T08:56:44.228Z,100687.59
2019-04-26T08:59:24.618Z,100691.20
2019-04-26T09:02:12.100Z,100714.03
2019-04-26T09:04:44.836Z,100717.77
2019-04-26T09:07:18.599Z,100730.89
2019-04-26T09:09:57.209Z,100742.09
2019-04-26T09:12:23.102Z,100746.28
2019-04-26T09:14:53.956Z,100764.52
2019-04-26T09:17:27.839Z,100766.60
2019-04-26T09:19:58.092Z,100768.27
2019-04-26T09:22:45.872Z,100769.73
2019-04-26T09:25:30.309Z,100776.22
2019-04-26T09:28:03.080Z,100789.08
2019-04-26T09:30:34.821Z,100789.41
2019-04-26T09:33:07.283Z,100777.87
2019-04-26T09:35:36.881Z,100777.87
2019-04-26T09:38:06.693Z,100790.40
2019-04-26T09:40:38.272Z,100791.53
2019-04-26T09:43:15.027Z,100787.16
2019-04-26T09:46:02.870Z,100778.24
2019-04-26T09:48:36.956Z,100776.78
2019-04-26T09:51:09.193Z,100776.71
2019-04-26T09:53:39.514Z,100777.08
2019-04-26T09:56:10.048Z,100793.92
2019-04-26T09:58:39.645Z,100791.99
2019-04-26T10:01:09.039Z,100795.50
2019-04-26T10:03:38.752Z,100795.60
2019-04-26T10:06:08.491Z,100796.70
2019-04-26T10:08:39.432Z,100795.34
2019-04-26T10:11:11.204Z,100796.81
2019-04-26T10:13:43.822Z,100794.70
2019-04-26T10:19:01.333Z,100809.39
2019-04-26T10:21:30.896Z,100801.71
2019-04-26T10:24:15.053Z,100793.78
2019-04-26T10:26:44.737Z,100782.00
2019-04-26T10:29:14.128Z,100780.94
2019-04-26T10:31:57.205Z,100783.28
2019-04-26T10:34:42.725Z,100778.09
2019-04-26T10:37:23.355Z,100789.53
2019-04-26T10:39:52.925Z,100796.52
2019-04-26T10:45:45.862Z,100805.50
2019-04-26T10:48:24.522Z,100801.36
2019-04-26T10:50:55.868Z,100814.23
2019-04-26T10:53:45.157Z,100813.52
2019-04-26T10:56:33.953Z,100814.67
2019-04-26T10:59:22.801Z,100814.95
2019-04-26T11:01:53.873Z,100807.69
2019-04-26T11:04:25.898Z,100818.05
2019-04-26T11:07:01.989Z,100813.48
2019-04-26T11:09:50.765Z,100817.72
2019-04-26T11:12:32.947Z,100817.30
2019-04-26T11:15:14.509Z,100827.73
2019-04-26T11:17:46.060Z,100828.86
2019-04-26T11:23:22.933Z,100831.00
2019-04-26T11:25:52.302Z,100839.13
2019-04-26T11:28:22.981Z,100836.91
2019-04-26T11:31:12.379Z,100847.72
2019-04-26T11:36:23.113Z,100852.12
2019-04-26T11:38:52.519Z,100861.87
2019-04-26T11:41:21.886Z,100860.03
2019-04-26T11:46:59.413Z,100859.47
2019-04-26T11:52:36.040Z,100863.25
2019-04-26T11:55:31.928Z,100872.20
2019-04-26T11:58:03.424Z,100872.20
2019-04-26T12:00:52.274Z,100886.16
2019-04-26T12:11:48.780Z,100882.83
2019-04-26T12:14:29.480Z,100879.36
2019-04-26T12:19:48.168Z,100878.14
2019-04-26T12:22:35.197Z,100871.77
2019-04-26T12:25:18.060Z,100864.97
2019-04-26T12:27:47.709Z,100871.22
2019-04-26T12:30:28.011Z,100867.72
2019-04-26T12:32:57.395Z,100860.07
2019-04-26T12:35:46.201Z,100854.70
2019-04-26T12:38:15.525Z,100856.94
2019-04-26T12:40:46.116Z,100863.09
2019-04-26T12:43:35.563Z,100872.63
2019-04-26T12:49:24.268Z,100857.00
2019-04-26T12:52:17.545Z,100850.80
2019-04-26T12:54:47.781Z,100850.52
2019-04-26T12:57:17.214Z,100856.88
2019-04-26T13:03:20.366Z,100851.22
2019-04-26T13:06:03.522Z,100853.91
2019-04-26T13:08:56.045Z,100849.50
2019-04-26T13:11:52.777Z,100843.75
2019-04-26T13:14:47.493Z,100841.67
2019-04-26T13:17:37.421Z,100846.61
2019-04-26T13:20:28.785Z,100851.73
2019-04-26T13:23:03.780Z,100852.42
2019-04-26T13:31:49.857Z,100859.29
2019-04-26T13:34:19.359Z,100859.95
2019-04-26T13:36:49.606Z,100868.98
2019-04-26T13:39:38.382Z,100859.66
2019-04-26T13:42:09.726Z,100855.23
2019-04-26T13:45:20.970Z,100859.08
2019-04-26T13:48:10.502Z,100850.59
2019-04-26T13:53:49.277Z,100852.36
2019-04-26T13:56:32.009Z,100853.39
2019-04-26T13:59:02.817Z,100850.89
2019-04-26T14:04:14.677Z,100855.89
2019-04-26T14:06:57.055Z,100863.80
2019-04-26T14:09:40.118Z,100872.55
2019-04-26T14:12:22.872Z,100871.71
2019-04-26T14:15:07.974Z,100869.52
2019-04-26T14:18:15.534Z,100868.16
2019-04-26T14:20:44.932Z,100870.98
2019-04-26T14:26:29.583Z,100863.27
2019-04-26T14:28:59.861Z,100859.57
2019-04-26T14:31:29.530Z,100864.63
2019-04-26T14:34:01.327Z,100870.25
2019-04-26T14:36:31.857Z,100868.64
2019-04-26T14:39:06.044Z,100875.00
2019-04-26T14:41:35.563Z,100880.20
2019-04-26T14:44:15.367Z,100880.09
2019-04-26T14:46:48.263Z,100880.87
2019-04-26T14:49:08.916Z,100884.34
2019-04-26T14:51:40.598Z,100878.86
2019-04-26T14:54:11.456Z,100883.44
2019-04-26T14:56:51.760Z,100887.66
2019-04-26T14:59:14.324Z,100887.17
2019-04-26T15:02:02.434Z,100890.50
2019-04-26T15:04:35.297Z,100895.70
2019-04-26T15:07:05.973Z,100904.92
2019-04-26T15:09:36.611Z,100895.84
2019-04-26T15:12:07.635Z,100903.67
2019-04-26T15:14:42.222Z,100907.37
2019-04-26T15:17:16.372Z,100914.89
2019-04-26T15:19:47.272Z,100914.45
2019-04-26T15:22:16.808Z,100909.69
2019-04-26T15:24:46.517Z,100917.30
2019-04-26T15:27:18.387Z,100911.55
2019-04-26T15:29:48.493Z,100913.23
2019-04-26T15:32:18.013Z,100912.39
2019-04-26T15:34:47.564Z,100918.78
2019-04-26T15:37:20.213Z,100916.08
2019-04-26T15:39:58.285Z,100915.47
2019-04-26T15:42:31.970Z,100918.76
2019-04-26T15:45:03.499Z,100912.11
2019-04-26T15:47:53.264Z,100908.50
2019-04-26T15:50:24.840Z,100909.27
2019-04-26T15:52:55.360Z,100892.73
2019-04-26T15:55:24.727Z,100892.73
2019-04-26T15:57:54.989Z,100901.84
2019-04-26T16:00:24.478Z,100904.44
2019-04-26T16:02:54.664Z,100910.44
2019-04-26T16:05:29.445Z,100908.69
2019-04-26T16:07:57.415Z,100904.26
2019-04-26T16:10:29.590Z,100906.59
2019-04-26T16:13:00.072Z,100908.69
2019-04-26T16:15:32.278Z,100903.64
2019-04-26T16:18:03.943Z,100901.04
2019-04-26T16:20:38.047Z,100905.76
2019-04-26T16:23:09.411Z,100910.55
2019-04-26T16:25:42.812Z,100913.55
2019-04-26T16:28:30.832Z,100909.34
2019-04-26T16:31:17.881Z,100902.69
2019-04-26T16:33:49.651Z,100901.36
2019-04-26T16:36:19.026Z,100899.09
2019-04-26T16:38:54.296Z,100891.36
2019-04-26T16:41:21.776Z,100896.52
2019-04-26T16:43:53.384Z,100895.64
2019-04-26T16:46:24.629Z,100900.36
2019-04-26T16:48:55.505Z,100906.98
2019-04-26T16:51:25.199Z,100905.01
2019-04-26T16:54:06.703Z,100905.09
2019-04-26T16:58:56.816Z,100902.39
2019-04-26T17:00:33.601Z,100908.27
2019-04-26T17:01:26.191Z,100910.98
2019-04-26T17:03:55.992Z,100902.73
2019-04-26T17:06:27.287Z,100906.56
2019-04-26T17:09:01.020Z,100906.56
2019-04-26T17:11:30.193Z,100910.11
2019-04-26T17:14:04.881Z,100909.30
2019-04-26T17:16:38.071Z,100914.61
2019-04-26T17:19:06.805Z,100919.33
2019-04-26T17:21:40.731Z,100927.08
2019-04-26T17:24:27.879Z,100936.55
2019-04-26T17:26:58.885Z,100926.45
2019-04-26T17:29:28.554Z,100925.44
2019-04-26T17:31:57.924Z,100930.15
2019-04-26T17:34:28.946Z,100924.59
2019-04-26T17:37:00.194Z,100920.98
2019-04-26T17:39:30.374Z,100925.52
2019-04-26T17:42:01.233Z,100922.04
2019-04-26T17:44:34.087Z,100918.97
2019-04-26T17:47:03.343Z,100919.59
2019-04-26T17:49:34.701Z,100914.32
2019-04-26T17:52:06.120Z,100914.94
2019-04-26T17:54:46.287Z,100922.08
2019-04-26T17:57:08.843Z,100932.91
2019-04-26T17:59:45.230Z,100934.03
2019-04-26T18:02:20.606Z,100938.23
2019-04-26T18:04:43.141Z,100954.59
2019-04-26T18:07:36.425Z,100946.10
2019-04-26T18:09:46.760Z,100947.34
2019-04-26T18:12:16.776Z,100945.11
2019-04-26T18:14:46.142Z,100948.70
2019-04-26T18:17:24.791Z,100956.31
2019-04-26T18:20:14.302Z,100965.41
2019-04-26T18:22:45.475Z,100969.77
2019-04-26T18:25:17.702Z,100970.16
2019-04-26T18:27:47.079Z,100976.92
2019-04-26T18:30:17.107Z,100978.75
2019-04-26T18:32:48.167Z,100963.02
2019-04-26T18:35:19.299Z,100963.97
2019-04-26T18:37:49.126Z,100958.96
2019-04-26T18:40:20.583Z,100947.73
2019-04-26T18:42:49.955Z,100950.44
2019-04-26T18:45:25.932Z,100956.33
2019-04-26T18:47:54.877Z,100966.93
2019-04-26T18:50:23.746Z,100964.37
2019-04-26T18:52:59.819Z,100961.91
2019-04-26T18:55:34.542Z,100965.27
2019-04-26T18:58:05.611Z,100969.66
2019-04-26T19:00:36.767Z,100961.21
2019-04-26T19:03:07.735Z,100970.31
2019-04-26T19:05:37.118Z,100964.05
2019-04-26T19:08:09.983Z,100973.20
2019-04-26T19:10:40.501Z,100972.98
2019-04-26T19:13:22.285Z,100978.63
2019-04-26T19:16:03.645Z,100980.63
2019-04-26T19:18:53.650Z,100982.73
2019-04-26T19:21:42.496Z,100967.77
2019-04-26T19:24:19.468Z,100958.77
2019-04-26T19:26:44.217Z,100962.59
2019-04-26T19:29:18.213Z,100960.88
2019-04-26T19:31:45.962Z,100967.27
2019-04-26T19:34:17.754Z,100976.14
2019-04-26T19:36:47.448Z,100987.09
2019-04-26T19:39:22.429Z,101000.62
2019-04-26T19:41:53.632Z,101001.28
2019-04-26T19:44:24.114Z,101002.03
2019-04-26T19:47:03.236Z,100988.89
2019-04-26T19:49:49.101Z,100986.19
2019-04-26T19:52:33.707Z,100987.41
2019-04-26T19:55:11.518Z,100980.89
2019-04-26T19:57:42.635Z,100987.64
2019-04-26T20:00:12.478Z,100988.02
2019-04-26T20:02:42.196Z,100981.91
2019-04-26T20:05:12.007Z,100985.95
2019-04-26T20:07:41.685Z,100991.70
2019-04-26T20:10:12.851Z,100995.52
2019-04-26T20:12:43.467Z,100988.62
2019-04-26T20:15:25.408Z,100984.56
2019-04-26T20:17:52.500Z,100989.13
2019-04-26T20:20:22.079Z,100989.37
2019-04-26T20:22:51.669Z,100999.94
2019-04-26T20:25:22.388Z,101001.53
2019-04-26T20:27:59.771Z,100998.49
2019-04-26T20:30:31.582Z,101001.20
2019-04-26T20:33:02.651Z,100997.61
2019-04-26T20:35:32.351Z,101002.78
2019-04-26T20:38:04.664Z,101003.30
2019-04-26T20:40:34.453Z,101002.18
2019-04-26T20:43:06.878Z,100994.95
2019-04-26T20:45:41.409Z,100989.17
2019-04-26T20:48:07.813Z,100989.05
2019-04-26T20:50:37.363Z,100990.02
2019-04-26T20:53:06.748Z,100989.18
2019-04-26T20:55:36.241Z,100995.94
2019-04-26T20:58:08.476Z,100995.80
2019-04-26T21:00:37.824Z,100983.77
2019-04-26T21:03:21.124Z,100978.74
2019-04-26T21:05:46.253Z,100964.73
2019-04-26T21:08:12.453Z,100972.70
2019-04-26T21:10:42.525Z,100964.25
2019-04-26T21:13:12.573Z,100963.24
2019-04-26T21:15:54.636Z,100958.95
2019-04-26T21:18:14.511Z,100952.84
2019-04-26T21:20:44.134Z,100952.84
2019-04-26T21:23:15.724Z,100954.30
2019-04-26T21:25:47.793Z,100949.77
2019-04-26T21:28:22.311Z,100950.62
2019-04-26T21:30:53.318Z,100954.67
2019-04-26T21:33:24.344Z,100950.25
2019-04-26T21:36:01.989Z,100948.28
2019-04-26T21:38:49.644Z,100950.38
2019-04-26T21:41:20.945Z,100953.45
2019-04-26T21:43:50.633Z,100953.32
2019-04-26T21:46:24.107Z,100946.94
2019-04-26T21:48:53.660Z,100944.61
2019-04-26T21:51:24.296Z,100949.77
2019-04-26T21:53:54.964Z,100939.68
2019-04-26T21:56:24.408Z,100934.55
2019-04-26T21:58:54.070Z,100939.71
2019-04-26T22:01:25.241Z,100940.19
2019-04-26T22:03:58.294Z,100933.44
2019-04-26T22:06:29.014Z,100934.31
2019-04-26T22:09:02.790Z,100934.78
2019-04-26T22:11:32.788Z,100944.84
2019-04-26T22:14:04.360Z,100941.30
2019-04-26T22:16:41.600Z,100932.59
2019-04-26T22:19:28.038Z,100933.19
2019-04-26T22:22:15.407Z,100940.20
2019-04-26T22:24:46.430Z,100943.73
2019-04-26T22:27:17.397Z,100949.64
2019-04-26T22:29:51.752Z,100947.41
2019-04-26T22:32:24.788Z,100952.57
2019-04-26T22:34:54.415Z,100955.27
2019-04-26T22:37:29.871Z,100955.53
2019-04-26T22:39:54.932Z,100956.88
2019-04-26T22:42:26.219Z,100956.98
2019-04-26T22:45:09.148Z,100953.06
2019-04-26T22:47:40.924Z,100955.15
2019-04-26T22:50:08.688Z,100952.20
2019-04-26T22:52:38.361Z,100948.63
2019-04-26T22:55:08.749Z,100953.31
2019-04-26T22:57:38.710Z,100949.50
2019-04-26T23:00:09.916Z,100953.77
2019-04-26T23:02:41.220Z,100948.87
2019-04-26T23:05:10.925Z,100946.92
2019-04-26T23:07:40.543Z,100945.19
2019-04-26T23:10:13.027Z,100949.48
2019-04-26T23:12:53.991Z,100949.98
2019-04-26T23:15:43.262Z,100943.71
2019-04-26T23:18:20.460Z,100940.64
2019-04-26T23:20:57.262Z,100941.27
2019-04-26T23:23:26.652Z,100946.90
2019-04-26T23:25:56.345Z,100951.45
2019-04-26T23:28:27.780Z,100959.39
2019-04-26T23:31:01.406Z,100959.62
2019-04-26T23:33:30.679Z,100954.23
2019-04-26T23:36:00.849Z,100949.07
2019-04-26T23:38:34.529Z,100939.39
2019-04-26T23:41:06.978Z,100942.68
2019-04-26T23:43:34.981Z,100936.45
2019-04-26T23:46:05.143Z,100940.48
2019-04-26T23:48:36.095Z,100945.23
2019-04-26T23:51:08.361Z,100941.91
2019-04-26T23:53:37.560Z,100940.70
2019-04-26T23:56:06.929Z,100938.37
2019-04-26T23:58:40.308Z,100931.66
